createdAt,value
2022-11-12T00:00:45.555Z,102536.47
2022-11-12T00:03:31.798Z,102529.44
2022-11-12T00:06:27.475Z,102531.06
2022-11-12T00:09:14.030Z,102536.59
2022-11-12T00:12:00.423Z,102536.78
2022-11-12T00:14:47.217Z,102532.47
2022-11-12T00:17:35.298Z,102539.59
2022-11-12T00:20:22.225Z,102538.28
2022-11-12T00:23:09.004Z,102527.25
2022-11-12T00:26:02.902Z,102532.06
2022-11-12T00:28:49.494Z,102542.94
2022-11-12T00:31:36.038Z,102547.22
2022-11-12T00:34:23.827Z,102542.94
2022-11-12T00:37:10.530Z,102539.31
2022-11-12T00:39:59.655Z,102542.81
2022-11-12T00:42:46.635Z,102542.03
2022-11-12T00:45:36.508Z,102544.84
2022-11-12T00:48:23.795Z,102549.94
2022-11-12T00:51:14.149Z,102544.44
2022-11-12T00:54:00.804Z,102550.34
2022-11-12T00:56:53.058Z,102552.66
2022-11-12T00:59:39.688Z,102551.78
2022-11-12T01:02:26.233Z,102548.53
2022-11-12T01:05:16.829Z,102551.78
2022-11-12T01:08:15.418Z,102549.94
2022-11-12T01:11:11.978Z,102531.47
2022-11-12T01:14:00.435Z,102555.06
2022-11-12T01:16:48.151Z,102550.72
2022-11-12T01:19:40.695Z,102542.63
2022-11-12T01:22:27.630Z,102540.59
2022-11-12T01:25:16.355Z,102539.31
2022-11-12T01:28:16.617Z,102540.91
2022-11-12T01:31:11.841Z,102548.94
2022-11-12T01:34:01.006Z,102549.25
2022-11-12T01:36:47.455Z,102547.72
2022-11-12T01:39:45.795Z,102541.00
2022-11-12T01:42:34.219Z,102554.56
2022-11-12T01:45:31.640Z,102555.94
2022-11-12T01:48:28.733Z,102553.72
2022-11-12T01:51:16.939Z,102552.44
2022-11-12T01:54:11.026Z,102556.53
2022-11-12T01:57:08.205Z,102564.25
2022-11-12T02:00:01.960Z,102558.06
2022-11-12T02:02:54.817Z,102550.59
2022-11-12T02:05:45.947Z,102554.44
2022-11-12T02:08:36.523Z,102563.69
2022-11-12T02:11:23.639Z,102558.84
2022-11-12T02:14:11.696Z,102556.16
2022-11-12T02:17:01.342Z,102541.78
2022-11-12T02:19:48.746Z,102564.09
2022-11-12T02:22:37.207Z,102564.31
2022-11-12T02:25:51.601Z,102561.06
2022-11-12T02:28:38.621Z,102561.38
2022-11-12T02:31:26.515Z,102554.56
2022-11-12T02:34:18.957Z,102545.81
2022-11-12T02:37:05.472Z,102555.56
2022-11-12T02:39:53.213Z,102558.94
2022-11-12T02:42:39.370Z,102554.22
2022-11-12T02:45:26.909Z,102560.16
2022-11-12T02:48:19.054Z,102560.16
2022-11-12T02:51:06.902Z,102554.03
2022-11-12T02:53:53.618Z,102564.06
2022-11-12T02:56:57.443Z,102560.44
2022-11-12T02:59:43.870Z,102562.56
2022-11-12T03:02:32.569Z,102559.41
2022-11-12T03:05:21.502Z,102554.41
2022-11-12T03:08:09.922Z,102558.50
2022-11-12T03:10:56.476Z,102548.78
2022-11-12T03:13:45.201Z,102551.31
2022-11-12T03:16:35.064Z,102544.88
2022-11-12T03:19:22.857Z,102541.94
2022-11-12T03:22:10.335Z,102550.41
2022-11-12T03:24:57.295Z,102560.91
2022-11-12T03:27:43.823Z,102546.19
2022-11-12T03:30:34.753Z,102561.44
2022-11-12T03:33:28.560Z,102556.94
2022-11-12T03:36:19.973Z,102558.81
2022-11-12T03:39:06.359Z,102554.53
2022-11-12T03:41:52.797Z,102560.69
2022-11-12T03:44:40.271Z,102562.81
2022-11-12T03:47:31.940Z,102561.69
2022-11-12T03:50:23.075Z,102555.78
2022-11-12T03:53:12.391Z,102541.44
2022-11-12T03:55:58.883Z,102513.19
2022-11-12T03:58:45.730Z,102549.88
2022-11-12T04:01:35.217Z,102557.16
2022-11-12T04:04:45.538Z,102542.44
2022-11-12T04:07:49.584Z,102547.75
2022-11-12T04:10:36.993Z,102555.47
2022-11-12T04:13:29.708Z,102550.00
2022-11-12T04:16:35.671Z,102551.47
2022-11-12T04:19:48.056Z,102549.97
2022-11-12T04:22:34.699Z,102552.06
2022-11-12T04:25:41.296Z,102548.66
2022-11-12T04:28:28.059Z,102549.34
2022-11-12T04:31:14.033Z,102550.97
2022-11-12T04:34:20.392Z,102540.22
2022-11-12T04:37:08.892Z,102521.03
2022-11-12T04:39:55.333Z,102548.25
2022-11-12T04:43:00.678Z,102539.91
2022-11-12T04:45:51.199Z,102543.28
2022-11-12T04:48:37.542Z,102549.47
2022-11-12T04:51:41.915Z,102548.28
2022-11-12T04:54:32.656Z,102533.06
2022-11-12T04:57:29.129Z,102536.97
2022-11-12T05:00:16.165Z,102531.75
2022-11-12T05:03:11.882Z,102530.91
2022-11-12T05:06:03.056Z,102553.19
2022-11-12T05:08:50.161Z,102544.28
2022-11-12T05:11:38.981Z,102523.94
2022-11-12T05:14:29.687Z,102548.16
2022-11-12T05:17:28.549Z,102556.81
2022-11-12T05:20:19.153Z,102550.41
2022-11-12T05:23:07.587Z,102547.25
2022-11-12T05:25:54.391Z,102532.72
2022-11-12T05:28:42.168Z,102547.75
2022-11-12T05:31:33.427Z,102546.56
2022-11-12T05:34:23.074Z,102552.25
2022-11-12T05:37:11.354Z,102549.09
2022-11-12T05:39:57.892Z,102542.25
2022-11-12T05:42:45.540Z,102550.88
2022-11-12T05:45:33.380Z,102550.19
2022-11-12T05:48:24.544Z,102548.38
2022-11-12T05:51:14.363Z,102548.16
2022-11-12T05:54:01.298Z,102555.00
2022-11-12T05:56:48.043Z,102544.53
2022-11-12T05:59:34.457Z,102543.44
2022-11-12T06:02:24.730Z,102548.03
2022-11-12T06:05:11.696Z,102541.91
2022-11-12T06:08:05.423Z,102544.41
2022-11-12T06:10:52.685Z,102550.34
2022-11-12T06:13:39.413Z,102544.41
2022-11-12T06:16:26.021Z,102540.81
2022-11-12T06:19:17.188Z,102541.47
2022-11-12T06:22:10.500Z,102545.59
2022-11-12T06:24:56.955Z,102539.28
2022-11-12T06:27:43.537Z,102549.06
2022-11-12T06:30:30.757Z,102548.66
2022-11-12T06:33:20.183Z,102561.19
2022-11-12T06:36:12.831Z,102555.47
2022-11-12T06:39:10.029Z,102550.69
2022-11-12T06:41:56.338Z,102550.19
2022-11-12T06:44:42.661Z,102564.03
2022-11-12T06:47:28.942Z,102567.25
2022-11-12T06:50:15.468Z,102572.66
2022-11-12T06:53:04.186Z,102573.38
2022-11-12T06:55:55.945Z,102565.13
2022-11-12T06:58:43.777Z,102563.75
2022-11-12T07:01:30.354Z,102566.25
2022-11-12T07:04:16.720Z,102576.91
2022-11-12T07:07:06.686Z,102577.84
2022-11-12T07:09:57.351Z,102578.72
2022-11-12T07:12:53.387Z,102591.88
2022-11-12T07:15:40.061Z,102588.69
2022-11-12T07:18:27.837Z,102587.34
2022-11-12T07:21:16.907Z,102593.25
2022-11-12T07:24:03.816Z,102592.59
2022-11-12T07:26:51.836Z,102603.22
2022-11-12T07:29:47.445Z,102610.75
2022-11-12T07:32:45.971Z,102607.75
2022-11-12T07:35:36.846Z,102607.47
2022-11-12T07:38:27.109Z,102609.44
2022-11-12T07:41:15.479Z,102598.84
2022-11-12T07:44:03.519Z,102565.47
2022-11-12T07:46:49.874Z,102592.22
2022-11-12T07:49:42.318Z,102578.22
2022-11-12T07:52:36.156Z,102590.56
2022-11-12T07:55:24.986Z,102596.84
2022-11-12T07:58:12.903Z,102593.25
2022-11-12T08:01:09.216Z,102590.59
2022-11-12T08:03:56.029Z,102592.72
2022-11-12T08:06:42.743Z,102596.25
2022-11-12T08:09:52.827Z,102593.13
2022-11-12T08:12:39.532Z,102600.25
2022-11-12T08:15:26.930Z,102596.06
2022-11-12T08:18:20.860Z,102596.75
2022-11-12T08:21:08.976Z,102598.19
2022-11-12T08:23:55.270Z,102609.44
2022-11-12T08:26:41.643Z,102604.88
2022-11-12T08:29:28.358Z,102608.97
2022-11-12T08:32:15.989Z,102610.59
2022-11-12T08:35:04.077Z,102606.53
2022-11-12T08:37:50.905Z,102606.91
2022-11-12T08:40:41.083Z,102602.00
2022-11-12T08:43:27.841Z,102597.25
2022-11-12T08:46:14.444Z,102608.34
2022-11-12T08:49:00.909Z,102601.56
2022-11-12T08:51:48.558Z,102591.88
2022-11-12T08:54:37.539Z,102592.47
2022-11-12T08:57:28.659Z,102595.97
2022-11-12T09:00:16.306Z,102590.97
2022-11-12T09:03:03.481Z,102595.50
2022-11-12T09:05:50.895Z,102593.34
2022-11-12T09:08:39.855Z,102604.75
2022-11-12T09:11:32.682Z,102606.13
2022-11-12T09:14:20.041Z,102606.75
2022-11-12T09:17:06.531Z,102606.78
2022-11-12T09:20:00.254Z,102604.25
2022-11-12T09:22:46.709Z,102610.66
2022-11-12T09:25:41.491Z,102607.25
2022-11-12T09:28:31.598Z,102601.69
2022-11-12T09:31:20.427Z,102616.34
2022-11-12T09:34:06.865Z,102617.09
2022-11-12T09:36:53.571Z,102603.91
2022-11-12T09:39:43.442Z,102605.63
2022-11-12T09:42:36.412Z,102606.00
2022-11-12T09:45:31.244Z,102609.28
2022-11-12T09:48:24.612Z,102613.03
2022-11-12T09:51:24.836Z,102610.50
2022-11-12T09:54:27.639Z,102604.94
2022-11-12T09:57:26.647Z,102602.44
2022-11-12T10:00:20.923Z,102603.22
2022-11-12T10:03:14.552Z,102610.44
2022-11-12T10:06:10.699Z,102615.69
2022-11-12T10:09:06.462Z,102603.41
2022-11-12T10:12:27.601Z,102606.72
2022-11-12T10:16:07.053Z,102598.63
2022-11-12T10:19:33.849Z,102606.25
2022-11-12T10:22:35.170Z,102603.72
2022-11-12T10:25:22.348Z,102595.97
2022-11-12T10:28:26.077Z,102594.72
2022-11-12T10:31:23.013Z,102594.56
2022-11-12T10:34:27.320Z,102589.72
2022-11-12T10:37:26.235Z,102599.06
2022-11-12T10:40:35.183Z,102595.47
2022-11-12T10:43:24.020Z,102602.34
2022-11-12T10:46:22.984Z,102598.38
2022-11-12T10:49:24.859Z,102592.59
2022-11-12T10:52:25.837Z,102587.91
2022-11-12T10:55:21.879Z,102583.75
2022-11-12T10:58:21.327Z,102590.22
2022-11-12T11:01:17.840Z,102588.25
2022-11-12T11:04:07.181Z,102586.06
2022-11-12T11:07:00.965Z,102581.31
2022-11-12T11:09:54.713Z,102569.44
2022-11-12T11:12:40.963Z,102574.50
2022-11-12T11:15:29.991Z,102581.91
2022-11-12T11:18:19.612Z,102551.75
2022-11-12T11:21:23.602Z,102569.78
2022-11-12T11:24:33.870Z,102569.97
2022-11-12T11:27:42.389Z,102557.31
2022-11-12T11:30:29.297Z,102561.13
2022-11-12T11:33:30.440Z,102553.38
2022-11-12T11:36:39.534Z,102543.44
2022-11-12T11:39:48.588Z,102552.28
2022-11-12T11:42:55.827Z,102553.53
2022-11-12T11:46:07.097Z,102542.00
2022-11-12T11:49:14.987Z,102550.28
2022-11-12T11:52:38.745Z,102548.13
2022-11-12T11:55:35.977Z,102550.81
2022-11-12T12:02:23.863Z,102538.69
2022-11-12T12:05:33.920Z,102532.50
2022-11-12T12:08:32.220Z,102519.53
2022-11-12T12:11:42.450Z,102527.44
2022-11-12T12:14:43.013Z,102534.88
2022-11-12T12:17:49.011Z,102521.91
2022-11-12T12:20:44.929Z,102529.28
2022-11-12T12:23:36.827Z,102523.88
2022-11-12T12:26:36.829Z,102523.94
2022-11-12T12:29:33.552Z,102515.44
2022-11-12T12:32:29.316Z,102514.34
2022-11-12T12:35:24.142Z,102516.72
2022-11-12T12:38:19.085Z,102516.72
2022-11-12T12:41:15.928Z,102484.94
2022-11-12T12:44:11.701Z,102509.13
2022-11-12T12:47:03.191Z,102516.16
2022-11-12T12:49:51.068Z,102511.28
2022-11-12T12:53:17.532Z,102500.06
2022-11-12T12:56:49.220Z,102495.91
2022-11-12T12:59:39.610Z,102499.50
2022-11-12T13:02:28.879Z,102492.63
2022-11-12T13:05:40.938Z,102486.66
2022-11-12T13:08:28.095Z,102488.88
2022-11-12T13:12:10.145Z,102487.47
2022-11-12T13:15:14.402Z,102487.09
2022-11-12T13:18:00.896Z,102482.41
2022-11-12T13:21:10.120Z,102490.31
2022-11-12T13:24:08.351Z,102483.16
2022-11-12T13:26:59.419Z,102497.94
2022-11-12T13:29:49.122Z,102498.47
2022-11-12T13:32:43.683Z,102501.59
2022-11-12T13:35:41.962Z,102499.44
2022-11-12T13:38:28.901Z,102495.44
2022-11-12T13:44:42.601Z,102497.84
2022-11-12T13:47:29.932Z,102481.06
2022-11-12T13:50:21.917Z,102497.28
2022-11-12T13:53:09.511Z,102488.63
2022-11-12T13:55:56.438Z,102486.69
2022-11-12T13:58:44.699Z,102487.75
2022-11-12T14:01:34.809Z,102495.91
2022-11-12T14:04:24.283Z,102491.22
2022-11-12T14:07:32.368Z,102495.19
2022-11-12T14:10:40.054Z,102496.63
2022-11-12T14:13:54.029Z,102501.34
2022-11-12T14:16:52.474Z,102490.84
2022-11-12T14:20:21.753Z,102487.25
2022-11-12T14:23:24.189Z,102492.31
2022-11-12T14:26:34.536Z,102493.03
2022-11-12T14:29:25.978Z,102482.91
2022-11-12T14:32:16.426Z,102473.91
2022-11-12T14:35:20.272Z,102482.56
2022-11-12T14:38:32.986Z,102484.38
2022-11-12T14:41:23.803Z,102469.25
2022-11-12T14:44:30.334Z,102475.38
2022-11-12T14:47:19.451Z,102473.03
2022-11-12T14:50:08.212Z,102473.94
2022-11-12T14:52:58.764Z,102481.16
2022-11-12T14:55:51.399Z,102483.50
2022-11-12T14:58:41.432Z,102474.47
2022-11-12T15:04:44.905Z,102487.44
2022-11-12T15:07:34.819Z,102484.22
2022-11-12T15:10:41.021Z,102479.34
2022-11-12T15:13:40.564Z,102475.19
2022-11-12T15:16:33.220Z,102443.75
2022-11-12T15:19:26.690Z,102472.41
2022-11-12T15:22:21.540Z,102474.19
2022-11-12T15:25:24.373Z,102483.19
2022-11-12T15:28:23.423Z,102482.84
2022-11-12T15:31:22.631Z,102471.16
2022-11-12T15:34:33.218Z,102451.50
2022-11-12T15:37:25.851Z,102464.97
2022-11-12T15:40:22.920Z,102463.69
2022-11-12T15:43:18.122Z,102469.25
2022-11-12T15:46:16.324Z,102477.28
2022-11-12T15:49:03.115Z,102477.81
2022-11-12T15:51:49.680Z,102470.59
2022-11-12T15:54:40.936Z,102472.53
2022-11-12T15:57:33.228Z,102479.31
2022-11-12T16:00:22.298Z,102467.78
2022-11-12T16:03:15.977Z,102462.91
2022-11-12T16:06:08.882Z,102476.56
2022-11-12T16:08:55.845Z,102475.66
2022-11-12T16:11:42.458Z,102466.81
2022-11-12T16:14:29.200Z,102459.41
2022-11-12T16:17:17.330Z,102460.25
2022-11-12T16:20:21.996Z,102463.66
2022-11-12T16:23:09.046Z,102467.78
2022-11-12T16:25:55.763Z,102467.97
2022-11-12T16:28:42.009Z,102463.75
2022-11-12T16:31:28.611Z,102462.44
2022-11-12T16:34:18.066Z,102460.88
2022-11-12T16:37:06.086Z,102471.41
2022-11-12T16:39:55.591Z,102461.47
2022-11-12T16:42:48.048Z,102464.53
2022-11-12T16:45:40.962Z,102466.81
2022-11-12T16:48:29.530Z,102459.03
2022-11-12T16:51:20.853Z,102462.84
2022-11-12T16:54:09.792Z,102447.28
2022-11-12T16:56:56.569Z,102457.34
2022-11-12T16:59:43.217Z,102453.41
2022-11-12T17:02:29.613Z,102449.81
2022-11-12T17:05:24.844Z,102454.47
2022-11-12T17:08:11.623Z,102464.34
2022-11-12T17:11:06.695Z,102461.22
2022-11-12T17:13:52.969Z,102456.69
2022-11-12T17:16:39.563Z,102445.19
2022-11-12T17:19:27.035Z,102442.28
2022-11-12T17:22:13.433Z,102441.38
2022-11-12T17:24:59.735Z,102449.59
2022-11-12T17:27:50.412Z,102449.97
2022-11-12T17:30:36.602Z,102443.41
2022-11-12T17:33:22.801Z,102438.69
2022-11-12T17:36:14.083Z,102433.63
2022-11-12T17:39:01.576Z,102436.25
2022-11-12T17:41:48.582Z,102453.03
2022-11-12T17:44:41.348Z,102444.41
2022-11-12T17:47:39.325Z,102447.59
2022-11-12T17:50:26.976Z,102456.03
2022-11-12T17:53:13.369Z,102445.41
2022-11-12T17:56:00.289Z,102438.69
2022-11-12T17:58:56.224Z,102434.19
2022-11-12T18:01:45.419Z,102433.00
2022-11-12T18:04:46.702Z,102436.41
2022-11-12T18:07:35.700Z,102438.41
2022-11-12T18:10:28.462Z,102425.28
2022-11-12T18:13:14.794Z,102426.81
2022-11-12T18:16:03.621Z,102428.59
2022-11-12T18:18:52.149Z,102436.84
2022-11-12T18:21:40.056Z,102437.34
2022-11-12T18:24:28.870Z,102440.38
2022-11-12T18:27:17.245Z,102439.06
2022-11-12T18:30:04.533Z,102442.38
2022-11-12T18:32:50.964Z,102446.94
2022-11-12T18:35:38.781Z,102440.50
2022-11-12T18:38:32.984Z,102441.03
2022-11-12T18:41:21.125Z,102442.94
2022-11-12T18:44:07.553Z,102440.03
2022-11-12T18:47:00.126Z,102444.72
2022-11-12T18:49:46.436Z,102444.34
2022-11-12T18:52:34.146Z,102432.19
2022-11-12T18:55:20.480Z,102434.88
2022-11-12T18:58:09.721Z,102425.16
2022-11-12T19:00:56.398Z,102446.63
2022-11-12T19:03:42.995Z,102436.00
2022-11-12T19:06:29.205Z,102421.66
2022-11-12T19:09:17.145Z,102430.69
2022-11-12T19:12:03.854Z,102423.16
2022-11-12T19:14:55.253Z,102419.94
2022-11-12T19:17:42.814Z,102412.94
2022-11-12T19:20:29.995Z,102413.44
2022-11-12T19:23:16.445Z,102414.94
2022-11-12T19:26:05.776Z,102406.47
2022-11-12T19:28:52.528Z,102414.81
2022-11-12T19:31:38.710Z,102421.41
2022-11-12T19:34:24.989Z,102426.22
2022-11-12T19:37:32.288Z,102424.28
2022-11-12T19:40:34.910Z,102417.09
2022-11-12T19:43:24.510Z,102417.78
2022-11-12T19:46:12.513Z,102411.44
2022-11-12T19:48:59.183Z,102413.25
2022-11-12T19:51:45.866Z,102406.63
2022-11-12T19:54:32.227Z,102407.13
2022-11-12T19:57:18.649Z,102404.31
2022-11-12T20:00:13.972Z,102380.13
2022-11-12T20:03:00.716Z,102393.47
2022-11-12T20:05:47.398Z,102407.09
2022-11-12T20:08:36.965Z,102413.13
2022-11-12T20:11:23.239Z,102399.06
2022-11-12T20:14:09.541Z,102401.56
2022-11-12T20:16:59.801Z,102396.56
2022-11-12T20:19:49.288Z,102405.47
2022-11-12T20:22:35.747Z,102395.97
2022-11-12T20:25:22.706Z,102392.34
2022-11-12T20:28:09.261Z,102404.34
2022-11-12T20:31:03.667Z,102394.66
2022-11-12T20:33:52.227Z,102393.94
2022-11-12T20:36:38.940Z,102392.16
2022-11-12T20:39:25.322Z,102398.28
2022-11-12T20:42:11.529Z,102395.06
2022-11-12T20:44:57.919Z,102393.66
2022-11-12T20:47:44.537Z,102402.75
2022-11-12T20:50:32.307Z,102394.84
2022-11-12T20:53:18.824Z,102389.66
2022-11-12T20:56:08.731Z,102393.03
2022-11-12T20:58:55.491Z,102391.72
2022-11-12T21:01:43.449Z,102391.13
2022-11-12T21:04:30.012Z,102395.50
2022-11-12T21:07:17.783Z,102394.41
2022-11-12T21:10:05.234Z,102389.47
2022-11-12T21:12:52.219Z,102382.25
2022-11-12T21:15:38.380Z,102381.75
2022-11-12T21:18:27.110Z,102393.16
2022-11-12T21:21:15.400Z,102380.00
2022-11-12T21:24:05.079Z,102369.53
2022-11-12T21:26:51.882Z,102372.69
2022-11-12T21:29:38.659Z,102374.81
2022-11-12T21:32:25.218Z,102353.03
2022-11-12T21:35:12.254Z,102354.56
2022-11-12T21:37:59.148Z,102350.44
2022-11-12T21:40:47.107Z,102346.16
2022-11-12T21:43:37.179Z,102348.66
2022-11-12T21:46:25.367Z,102339.34
2022-11-12T21:49:11.719Z,102336.13
2022-11-12T21:51:57.969Z,102342.94
2022-11-12T21:54:44.486Z,102340.44
2022-11-12T21:57:32.383Z,102336.84
2022-11-12T22:00:41.140Z,102333.63
2022-11-12T22:03:31.342Z,102333.63
2022-11-12T22:06:19.084Z,102343.16
2022-11-12T22:09:06.274Z,102330.13
2022-11-12T22:11:52.681Z,102323.63
2022-11-12T22:14:40.419Z,102327.91
2022-11-12T22:17:27.038Z,102331.13
2022-11-12T22:20:13.889Z,102318.41
2022-11-12T22:23:00.391Z,102313.19
2022-11-12T22:25:46.506Z,102314.78
2022-11-12T22:28:34.250Z,102302.84
2022-11-12T22:31:28.029Z,102320.81
2022-11-12T22:34:14.856Z,102322.78
2022-11-12T22:37:03.709Z,102324.19
2022-11-12T22:39:50.188Z,102314.16
2022-11-12T22:42:36.691Z,102317.78
2022-11-12T22:45:22.905Z,102308.28
2022-11-12T22:48:10.438Z,102307.84
2022-11-12T22:50:59.875Z,102291.53
2022-11-12T22:53:48.093Z,102294.94
2022-11-12T22:56:34.486Z,102291.53
2022-11-12T22:59:20.686Z,102299.66
2022-11-12T23:02:08.044Z,102298.03
2022-11-12T23:04:55.598Z,102299.78
2022-11-12T23:07:42.048Z,102294.06
2022-11-12T23:10:28.339Z,102298.19
2022-11-12T23:13:17.225Z,102297.28
2022-11-12T23:16:06.330Z,102306.38
2022-11-12T23:18:55.090Z,102292.75
2022-11-12T23:21:43.422Z,102295.97
2022-11-12T23:24:29.989Z,102295.97
2022-11-12T23:27:20.035Z,102295.44
2022-11-12T23:30:07.440Z,102287.75
2022-11-12T23:32:56.984Z,102296.34
2022-11-12T23:35:43.563Z,102290.97
2022-11-12T23:38:32.494Z,102290.97
2022-11-12T23:41:22.723Z,102283.25
2022-11-12T23:44:09.899Z,102269.66
2022-11-12T23:46:59.270Z,102275.50
2022-11-12T23:49:45.722Z,102289.66
2022-11-12T23:52:34.446Z,102280.13
2022-11-12T23:55:22.635Z,102277.81
2022-11-12T23:58:09.298Z,102273.72
